createdAt,value
2023-12-26T00:00:40.333Z,73.45
2023-12-26T00:03:08.123Z,74.07
2023-12-26T00:05:35.242Z,73.82
2023-12-26T00:08:05.142Z,73.62
2023-12-26T00:10:31.944Z,73.45
2023-12-26T00:13:01.288Z,73.18
2023-12-26T00:15:28.603Z,73.41
2023-12-26T00:17:55.428Z,73.13
2023-12-26T00:20:22.361Z,72.64
2023-12-26T00:22:49.037Z,73.03
2023-12-26T00:25:15.755Z,72.80
2023-12-26T00:27:43.977Z,73.04
2023-12-26T00:30:11.120Z,72.83
2023-12-26T00:32:37.971Z,73.66
2023-12-26T00:35:05.420Z,72.94
2023-12-26T00:37:33.215Z,73.35
2023-12-26T00:40:02.965Z,73.43
2023-12-26T00:42:32.024Z,73.63
2023-12-26T00:44:59.944Z,73.54
2023-12-26T00:47:26.799Z,73.30
2023-12-26T00:49:57.245Z,73.57
2023-12-26T00:52:24.018Z,73.93
2023-12-26T00:54:50.717Z,73.47
2023-12-26T00:57:17.499Z,73.32
2023-12-26T00:59:45.353Z,73.58
2023-12-26T01:02:12.296Z,73.07
2023-12-26T01:04:38.995Z,73.25
2023-12-26T01:07:06.610Z,73.25
2023-12-26T01:09:33.340Z,72.78
2023-12-26T01:11:59.992Z,72.77
2023-12-26T01:14:26.640Z,73.41
2023-12-26T01:16:53.312Z,72.67
2023-12-26T01:19:20.027Z,72.98
2023-12-26T01:21:46.733Z,72.92
2023-12-26T01:24:13.492Z,72.43
2023-12-26T01:26:40.232Z,72.89
2023-12-26T01:29:08.649Z,72.33
2023-12-26T01:31:36.750Z,72.90
2023-12-26T01:34:06.580Z,72.71
2023-12-26T01:36:36.636Z,73.02
2023-12-26T01:39:05.314Z,73.32
2023-12-26T01:41:31.959Z,73.09
2023-12-26T01:43:58.971Z,73.70
2023-12-26T01:46:25.653Z,73.55
2023-12-26T01:48:53.080Z,73.38
2023-12-26T01:51:19.979Z,73.74
2023-12-26T01:53:46.714Z,73.56
2023-12-26T01:56:16.265Z,73.81
2023-12-26T01:58:44.149Z,73.97
2023-12-26T02:01:10.976Z,73.63
2023-12-26T02:03:37.728Z,73.51
2023-12-26T02:06:04.778Z,74.04
2023-12-26T02:08:31.554Z,73.02
2023-12-26T02:10:58.534Z,72.92
2023-12-26T02:13:25.179Z,73.42
2023-12-26T02:15:52.598Z,72.93
2023-12-26T02:18:19.446Z,73.50
2023-12-26T02:20:46.376Z,73.75
2023-12-26T02:23:13.165Z,73.95
2023-12-26T02:25:39.826Z,74.31
2023-12-26T02:28:07.027Z,74.17
2023-12-26T02:30:33.787Z,74.30
2023-12-26T02:33:01.664Z,74.26
2023-12-26T02:35:28.861Z,74.23
2023-12-26T02:37:55.597Z,74.33
2023-12-26T02:40:22.397Z,74.06
2023-12-26T02:42:49.056Z,73.99
2023-12-26T02:45:16.369Z,73.62
2023-12-26T02:47:43.283Z,73.74
2023-12-26T02:50:10.028Z,74.31
2023-12-26T02:52:36.728Z,74.33
2023-12-26T02:55:03.555Z,74.52
2023-12-26T02:57:30.234Z,74.54
2023-12-26T02:59:57.050Z,74.64
2023-12-26T03:02:23.768Z,74.96
2023-12-26T03:04:51.085Z,74.75
2023-12-26T03:07:17.758Z,75.00
2023-12-26T03:09:44.373Z,74.77
2023-12-26T03:12:11.164Z,74.33
2023-12-26T03:14:37.857Z,74.70
2023-12-26T03:17:04.744Z,74.41
2023-12-26T03:19:31.569Z,74.28
2023-12-26T03:21:58.374Z,74.65
2023-12-26T03:24:24.990Z,74.47
2023-12-26T03:26:51.787Z,75.35
2023-12-26T03:29:18.453Z,75.05
2023-12-26T03:31:45.535Z,74.98
2023-12-26T03:34:13.085Z,75.59
2023-12-26T03:36:44.799Z,76.30
2023-12-26T03:39:11.691Z,76.19
2023-12-26T03:41:38.505Z,76.49
2023-12-26T03:44:05.447Z,77.48
2023-12-26T03:46:32.083Z,77.46
2023-12-26T03:48:58.900Z,77.59
2023-12-26T03:51:25.697Z,78.02
2023-12-26T03:53:52.356Z,78.12
2023-12-26T03:56:19.019Z,78.22
2023-12-26T03:58:45.891Z,77.93
2023-12-26T04:01:14.003Z,78.24
2023-12-26T04:03:40.793Z,77.85
2023-12-26T04:06:07.499Z,77.43
2023-12-26T04:08:34.110Z,77.39
2023-12-26T04:11:00.798Z,77.48
2023-12-26T04:13:27.461Z,78.17
2023-12-26T04:15:54.118Z,78.21
2023-12-26T04:18:21.026Z,78.88
2023-12-26T04:20:47.823Z,79.58
2023-12-26T04:23:14.454Z,79.69
2023-12-26T04:25:41.145Z,79.65
2023-12-26T04:28:07.959Z,81.03
2023-12-26T04:30:34.760Z,80.59
2023-12-26T04:33:02.531Z,80.27
2023-12-26T04:35:29.297Z,80.38
2023-12-26T04:37:55.940Z,80.35
2023-12-26T04:40:22.699Z,79.77
2023-12-26T04:42:49.339Z,79.36
2023-12-26T04:45:16.349Z,79.49
2023-12-26T04:47:43.406Z,79.23
2023-12-26T04:50:10.137Z,78.56
2023-12-26T04:52:36.835Z,78.54
2023-12-26T04:55:03.875Z,78.84
2023-12-26T04:57:30.656Z,79.07
2023-12-26T04:59:57.332Z,78.41
2023-12-26T05:02:24.087Z,78.31
2023-12-26T05:04:50.911Z,78.31
2023-12-26T05:07:17.566Z,78.53
2023-12-26T05:09:44.750Z,78.59
2023-12-26T05:12:11.493Z,78.21
2023-12-26T05:14:38.302Z,77.65
2023-12-26T05:17:04.984Z,78.09
2023-12-26T05:19:31.814Z,77.98
2023-12-26T05:21:58.504Z,77.65
2023-12-26T05:24:25.165Z,78.38
2023-12-26T05:26:51.860Z,77.61
2023-12-26T05:29:18.537Z,77.39
2023-12-26T05:31:45.834Z,77.29
2023-12-26T05:34:12.641Z,77.77
2023-12-26T05:36:39.464Z,77.62
2023-12-26T05:39:07.783Z,78.00
2023-12-26T05:41:34.420Z,77.25
2023-12-26T05:44:01.082Z,77.79
2023-12-26T05:46:30.932Z,77.56
2023-12-26T05:48:58.328Z,77.53
2023-12-26T05:51:26.355Z,77.00
2023-12-26T05:53:53.242Z,77.14
2023-12-26T05:56:20.468Z,77.08
2023-12-26T05:58:47.188Z,76.87
2023-12-26T06:01:13.910Z,76.46
2023-12-26T06:03:40.645Z,76.42
2023-12-26T06:06:11.367Z,76.93
2023-12-26T06:08:38.696Z,76.57
2023-12-26T06:11:05.361Z,76.31
2023-12-26T06:13:32.047Z,75.79
2023-12-26T06:15:58.729Z,75.49
2023-12-26T06:18:25.644Z,75.26
2023-12-26T06:20:52.421Z,74.93
2023-12-26T06:23:19.274Z,73.49
2023-12-26T06:25:47.344Z,73.68
2023-12-26T06:28:14.012Z,73.00
2023-12-26T06:30:40.720Z,73.39
2023-12-26T06:33:07.548Z,72.85
2023-12-26T06:35:34.307Z,73.22
2023-12-26T06:38:01.037Z,72.40
2023-12-26T06:40:27.819Z,72.46
2023-12-26T06:42:54.562Z,72.26
2023-12-26T06:45:21.305Z,72.08
2023-12-26T06:47:48.102Z,71.17
2023-12-26T06:50:14.865Z,71.44
2023-12-26T06:52:41.529Z,70.56
2023-12-26T06:55:08.471Z,70.67
2023-12-26T06:57:35.125Z,69.93
2023-12-26T07:00:02.044Z,69.47
2023-12-26T07:02:29.204Z,69.20
2023-12-26T07:04:55.880Z,68.54
2023-12-26T07:07:22.559Z,68.30
2023-12-26T07:09:50.956Z,68.05
2023-12-26T07:12:18.302Z,67.31
2023-12-26T07:14:45.100Z,66.57
2023-12-26T07:17:11.781Z,67.16
2023-12-26T07:19:38.613Z,67.72
2023-12-26T07:22:05.443Z,67.62
2023-12-26T07:24:32.091Z,67.25
2023-12-26T07:26:58.823Z,66.75
2023-12-26T07:29:28.342Z,66.95
2023-12-26T07:31:55.074Z,66.34
2023-12-26T07:34:21.841Z,66.09
2023-12-26T07:36:48.613Z,65.42
2023-12-26T07:39:16.354Z,64.78
2023-12-26T07:41:43.217Z,64.86
2023-12-26T07:44:10.109Z,64.80
2023-12-26T07:46:37.741Z,64.47
2023-12-26T07:49:04.682Z,64.64
2023-12-26T07:51:31.628Z,64.59
2023-12-26T07:53:58.305Z,65.05
2023-12-26T07:56:26.707Z,64.83
2023-12-26T07:58:54.082Z,64.71
2023-12-26T08:01:20.763Z,64.43
2023-12-26T08:03:47.555Z,65.26
2023-12-26T08:06:14.342Z,64.71
2023-12-26T08:08:41.173Z,64.24
2023-12-26T08:11:07.866Z,64.14
2023-12-26T08:13:34.531Z,63.53
2023-12-26T08:16:01.598Z,63.94
2023-12-26T08:18:28.392Z,63.68
2023-12-26T08:20:55.122Z,63.20
2023-12-26T08:23:21.823Z,63.05
2023-12-26T08:25:48.580Z,62.99
2023-12-26T08:28:15.276Z,63.36
2023-12-26T08:30:42.114Z,62.89
2023-12-26T08:33:09.178Z,62.83
2023-12-26T08:35:36.043Z,62.43
2023-12-26T08:38:02.896Z,62.17
2023-12-26T08:40:29.595Z,62.51
2023-12-26T08:42:56.398Z,62.45
2023-12-26T08:45:23.270Z,62.72
2023-12-26T08:47:51.071Z,62.21
2023-12-26T08:50:20.846Z,62.99
2023-12-26T08:52:47.922Z,61.99
2023-12-26T08:55:15.932Z,62.07
2023-12-26T08:57:42.642Z,62.44
2023-12-26T09:00:11.214Z,62.32
2023-12-26T09:02:39.187Z,62.02
2023-12-26T09:05:09.226Z,62.11
2023-12-26T09:07:35.865Z,62.22
2023-12-26T09:10:03.688Z,62.07
2023-12-26T09:12:30.357Z,61.76
2023-12-26T09:14:57.053Z,61.88
2023-12-26T09:17:23.958Z,61.97
2023-12-26T09:19:50.986Z,61.80
2023-12-26T09:22:18.207Z,62.03
2023-12-26T09:24:44.892Z,62.12
2023-12-26T09:27:11.947Z,62.47
2023-12-26T09:29:38.773Z,62.49
2023-12-26T09:32:05.885Z,63.07
2023-12-26T09:36:59.474Z,63.36
2023-12-26T09:39:26.313Z,63.27
2023-12-26T09:41:54.204Z,63.18
2023-12-26T09:44:23.983Z,63.19
2023-12-26T09:46:53.031Z,63.34
2023-12-26T09:49:19.885Z,63.14
2023-12-26T09:51:46.841Z,63.70
2023-12-26T09:54:13.820Z,63.63
2023-12-26T09:56:41.851Z,63.56
2023-12-26T09:59:08.880Z,63.50
2023-12-26T10:01:35.542Z,63.61
2023-12-26T10:04:04.547Z,64.06
2023-12-26T10:06:31.639Z,63.54
2023-12-26T10:08:58.981Z,64.01
2023-12-26T10:11:27.804Z,63.70
2023-12-26T10:13:55.829Z,63.84
2023-12-26T10:16:22.840Z,64.43
2023-12-26T10:18:51.652Z,64.08
2023-12-26T10:21:18.908Z,63.95
2023-12-26T10:23:46.547Z,63.93
2023-12-26T10:26:13.305Z,64.40
2023-12-26T10:28:40.372Z,64.37
2023-12-26T10:31:12.236Z,63.87
2023-12-26T10:33:39.074Z,64.05
2023-12-26T10:36:06.827Z,65.02
2023-12-26T10:38:33.998Z,64.57
2023-12-26T10:41:15.680Z,64.75
2023-12-26T10:43:42.444Z,65.07
2023-12-26T10:46:09.274Z,64.98
2023-12-26T10:48:36.579Z,64.66
2023-12-26T10:51:03.652Z,65.05
2023-12-26T10:54:16.233Z,65.10
2023-12-26T10:56:43.362Z,64.97
2023-12-26T10:59:10.191Z,64.81
2023-12-26T11:01:36.979Z,64.79
2023-12-26T11:04:03.799Z,65.47
2023-12-26T11:06:30.803Z,65.58
2023-12-26T11:08:57.630Z,64.88
2023-12-26T11:11:24.304Z,65.36
2023-12-26T11:13:51.285Z,64.95
2023-12-26T11:16:17.957Z,64.74
2023-12-26T11:18:45.227Z,64.33
2023-12-26T11:21:12.123Z,64.28
2023-12-26T11:23:38.891Z,64.20
2023-12-26T11:26:05.572Z,64.18
2023-12-26T11:28:32.193Z,64.63
2023-12-26T11:30:58.972Z,64.10
2023-12-26T11:33:25.914Z,64.53
2023-12-26T11:35:52.746Z,64.25
2023-12-26T11:38:19.642Z,64.91
2023-12-26T11:40:46.311Z,64.69
2023-12-26T11:43:12.991Z,64.73
2023-12-26T11:45:39.626Z,64.81
2023-12-26T11:48:06.396Z,64.63
2023-12-26T11:50:33.235Z,64.94
2023-12-26T11:53:00.038Z,65.23
2023-12-26T11:55:26.699Z,65.71
2023-12-26T11:57:53.334Z,65.58
2023-12-26T12:00:20.048Z,66.11
2023-12-26T12:02:46.775Z,65.43
2023-12-26T12:05:15.024Z,65.80
2023-12-26T12:07:41.670Z,65.59
2023-12-26T12:10:09.931Z,65.90
2023-12-26T12:12:36.631Z,65.35
2023-12-26T12:15:03.761Z,65.89
2023-12-26T12:17:30.480Z,65.50
2023-12-26T12:19:57.243Z,65.57
2023-12-26T12:22:27.217Z,65.77
2023-12-26T12:24:55.137Z,65.62
2023-12-26T12:27:23.068Z,65.52
2023-12-26T12:29:59.645Z,65.07
2023-12-26T12:32:33.313Z,65.44
2023-12-26T12:35:19.163Z,65.20
2023-12-26T12:37:49.690Z,66.12
2023-12-26T12:40:16.741Z,65.91
2023-12-26T12:42:43.513Z,65.81
2023-12-26T12:45:10.312Z,66.18
2023-12-26T12:47:37.363Z,65.83
2023-12-26T12:50:04.951Z,65.69
2023-12-26T12:52:48.015Z,66.44
2023-12-26T12:55:14.683Z,66.38
2023-12-26T12:57:41.458Z,66.28
2023-12-26T13:00:08.100Z,66.50
2023-12-26T13:02:34.822Z,66.56
2023-12-26T13:05:01.541Z,66.52
2023-12-26T13:07:28.251Z,66.42
2023-12-26T13:09:54.896Z,67.35
2023-12-26T13:12:21.579Z,67.02
2023-12-26T13:14:48.351Z,66.87
2023-12-26T13:17:15.129Z,67.16
2023-12-26T13:19:41.902Z,66.66
2023-12-26T13:22:16.505Z,66.41
2023-12-26T13:24:49.241Z,66.32
2023-12-26T13:27:22.631Z,66.95
2023-12-26T13:29:49.318Z,66.65
2023-12-26T13:32:16.030Z,66.62
2023-12-26T13:34:42.742Z,66.98
2023-12-26T13:37:09.448Z,66.46
2023-12-26T13:39:36.156Z,66.10
2023-12-26T13:42:03.061Z,66.55
2023-12-26T13:44:29.748Z,67.13
2023-12-26T13:46:56.376Z,67.04
2023-12-26T13:49:23.229Z,66.82
2023-12-26T13:51:50.253Z,67.13
2023-12-26T13:54:23.996Z,67.24
2023-12-26T13:56:50.870Z,66.41
2023-12-26T13:59:17.544Z,66.46
2023-12-26T14:01:44.218Z,66.50
2023-12-26T14:04:11.077Z,66.59
2023-12-26T14:06:37.911Z,66.87
2023-12-26T14:09:05.071Z,66.75
2023-12-26T14:11:31.820Z,66.86
2023-12-26T14:13:58.833Z,67.15
2023-12-26T14:16:25.640Z,66.61
2023-12-26T14:18:52.512Z,67.17
2023-12-26T14:21:19.384Z,66.89
2023-12-26T14:23:46.132Z,66.68
2023-12-26T14:26:12.969Z,66.31
2023-12-26T14:28:39.745Z,67.06
2023-12-26T14:31:06.560Z,66.83
2023-12-26T14:33:33.570Z,66.88
2023-12-26T14:36:00.707Z,67.31
2023-12-26T14:38:27.406Z,67.04
2023-12-26T14:40:57.586Z,67.29
2023-12-26T14:43:24.720Z,67.46
2023-12-26T14:45:51.377Z,67.22
2023-12-26T14:48:18.216Z,67.13
2023-12-26T14:50:46.022Z,67.27
2023-12-26T14:53:12.735Z,67.26
2023-12-26T14:55:39.365Z,67.72
2023-12-26T14:58:06.622Z,67.77
2023-12-26T15:00:33.595Z,68.06
2023-12-26T15:03:00.490Z,68.21
2023-12-26T15:05:27.558Z,68.55
2023-12-26T15:07:54.314Z,68.45
2023-12-26T15:10:21.217Z,68.89
2023-12-26T15:12:47.833Z,69.15
2023-12-26T15:15:14.645Z,68.83
2023-12-26T15:17:41.832Z,69.09
2023-12-26T15:20:12.153Z,69.12
2023-12-26T15:22:39.426Z,69.63
2023-12-26T15:25:06.395Z,69.24
2023-12-26T15:27:33.127Z,69.45
2023-12-26T15:29:59.945Z,69.62
2023-12-26T15:32:26.611Z,69.15
2023-12-26T15:34:53.398Z,69.85
2023-12-26T15:37:20.102Z,69.56
2023-12-26T15:39:46.892Z,69.89
2023-12-26T15:42:13.653Z,69.02
2023-12-26T15:44:42.155Z,69.19
2023-12-26T15:47:11.578Z,69.35
2023-12-26T15:49:38.462Z,69.34
2023-12-26T15:52:05.387Z,69.41
2023-12-26T15:54:32.508Z,69.79
2023-12-26T15:56:59.469Z,69.64
2023-12-26T15:59:26.190Z,69.29
2023-12-26T16:01:52.865Z,69.58
2023-12-26T16:04:19.620Z,69.45
2023-12-26T16:06:46.529Z,69.56
2023-12-26T16:09:13.476Z,69.77
2023-12-26T16:11:40.316Z,70.01
2023-12-26T16:14:09.269Z,70.23
2023-12-26T16:16:42.265Z,69.44
2023-12-26T16:19:11.160Z,69.59
2023-12-26T16:21:40.800Z,69.16
2023-12-26T16:24:08.028Z,69.60
2023-12-26T16:26:34.877Z,70.27
2023-12-26T16:29:01.694Z,69.66
2023-12-26T16:31:28.530Z,69.77
2023-12-26T16:33:55.802Z,69.35
2023-12-26T16:36:22.801Z,69.44
2023-12-26T16:38:49.547Z,69.73
2023-12-26T16:41:16.267Z,69.62
2023-12-26T16:43:43.001Z,69.29
2023-12-26T16:46:10.232Z,69.58
2023-12-26T16:48:39.997Z,69.01
2023-12-26T16:51:08.218Z,69.10
2023-12-26T16:53:38.366Z,69.35
2023-12-26T16:56:09.289Z,69.19
2023-12-26T16:58:36.643Z,68.80
2023-12-26T17:01:05.108Z,69.10
2023-12-26T17:03:32.272Z,68.66
2023-12-26T17:06:01.702Z,69.51
2023-12-26T17:08:28.438Z,69.18
2023-12-26T17:10:57.445Z,69.16
2023-12-26T17:13:24.561Z,69.02
2023-12-26T17:15:51.230Z,68.63
2023-12-26T17:18:18.064Z,68.63
2023-12-26T17:20:44.948Z,68.42
2023-12-26T17:23:11.724Z,68.44
2023-12-26T17:25:40.064Z,69.25
2023-12-26T17:28:08.502Z,69.68
2023-12-26T17:30:36.869Z,69.26
2023-12-26T17:33:04.299Z,69.58
2023-12-26T17:35:31.094Z,69.25
2023-12-26T17:37:58.195Z,69.04
2023-12-26T17:40:24.944Z,69.07
2023-12-26T17:42:51.708Z,69.27
2023-12-26T17:45:18.384Z,69.66
2023-12-26T17:47:45.078Z,69.36
2023-12-26T17:50:11.994Z,69.41
2023-12-26T17:52:38.858Z,69.53
2023-12-26T17:55:06.107Z,70.14
2023-12-26T17:57:32.937Z,69.56
2023-12-26T17:59:59.701Z,70.07
2023-12-26T18:02:26.454Z,69.77
2023-12-26T18:04:53.152Z,69.23
2023-12-26T18:07:19.934Z,69.11
2023-12-26T18:09:46.580Z,68.47
2023-12-26T18:12:13.273Z,68.72
2023-12-26T18:14:39.978Z,68.64
2023-12-26T18:17:06.655Z,68.85
2023-12-26T18:19:33.506Z,68.87
2023-12-26T18:22:00.312Z,69.09
2023-12-26T18:24:27.145Z,69.02
2023-12-26T18:26:53.961Z,69.61
2023-12-26T18:29:20.700Z,69.06
2023-12-26T18:31:47.779Z,69.70
2023-12-26T18:34:14.553Z,69.71
2023-12-26T18:36:41.362Z,69.60
2023-12-26T18:39:08.701Z,69.44
2023-12-26T18:41:40.745Z,70.15
2023-12-26T18:44:10.019Z,69.72
2023-12-26T18:46:41.207Z,70.34
2023-12-26T18:49:08.861Z,69.92
2023-12-26T18:51:35.818Z,70.12
2023-12-26T18:54:03.147Z,69.83
2023-12-26T18:56:29.881Z,70.42
2023-12-26T18:58:57.392Z,70.03
2023-12-26T19:01:24.260Z,70.27
2023-12-26T19:03:56.156Z,70.49
2023-12-26T19:06:23.041Z,70.30
2023-12-26T19:08:49.778Z,70.30
2023-12-26T19:11:17.760Z,70.48
2023-12-26T19:13:44.802Z,70.08
2023-12-26T19:16:11.747Z,69.71
2023-12-26T19:18:38.604Z,69.54
2023-12-26T19:21:05.556Z,69.60
2023-12-26T19:23:32.245Z,69.82
2023-12-26T19:25:59.090Z,69.56
2023-12-26T19:28:26.022Z,70.44
2023-12-26T19:30:52.854Z,70.36
2023-12-26T19:33:20.429Z,70.14
2023-12-26T19:35:47.279Z,70.49
2023-12-26T19:38:15.124Z,70.20
2023-12-26T19:40:42.061Z,70.71
2023-12-26T19:43:08.887Z,70.97
2023-12-26T19:45:35.720Z,69.94
2023-12-26T19:48:02.902Z,70.58
2023-12-26T19:50:29.870Z,70.45
2023-12-26T19:52:56.730Z,70.36
2023-12-26T19:55:23.530Z,71.10
2023-12-26T19:57:50.193Z,70.58
2023-12-26T20:00:17.062Z,70.81
2023-12-26T20:02:43.808Z,71.08
2023-12-26T20:05:11.214Z,71.02
2023-12-26T20:07:39.144Z,71.14
2023-12-26T20:10:06.539Z,71.32
2023-12-26T20:12:33.540Z,70.83
2023-12-26T20:15:00.581Z,70.69
2023-12-26T20:17:27.656Z,70.73
2023-12-26T20:19:54.603Z,70.50
2023-12-26T20:22:21.451Z,70.37
2023-12-26T20:24:48.519Z,70.57
2023-12-26T20:27:15.299Z,70.62
2023-12-26T20:29:42.206Z,70.23
2023-12-26T20:32:08.914Z,70.75
2023-12-26T20:34:35.818Z,71.30
2023-12-26T20:37:02.645Z,70.96
2023-12-26T20:39:29.423Z,71.85
2023-12-26T20:41:56.444Z,71.97
2023-12-26T20:44:23.734Z,71.51
2023-12-26T20:46:51.836Z,72.48
2023-12-26T20:49:20.162Z,72.63
2023-12-26T20:51:47.211Z,73.10
2023-12-26T20:54:15.666Z,73.26
2023-12-26T20:56:43.526Z,73.29
2023-12-26T20:59:10.583Z,73.28
2023-12-26T21:01:37.778Z,73.88
2023-12-26T21:04:05.816Z,73.84
2023-12-26T21:06:33.064Z,73.90
2023-12-26T21:08:59.990Z,73.91
2023-12-26T21:11:26.886Z,74.34
2023-12-26T21:13:55.778Z,74.46
2023-12-26T21:16:22.646Z,75.02
2023-12-26T21:18:52.850Z,75.05
2023-12-26T21:21:21.045Z,74.78
2023-12-26T21:23:48.131Z,74.75
2023-12-26T21:26:15.336Z,74.60
2023-12-26T21:28:42.304Z,75.14
2023-12-26T21:31:09.273Z,74.94
2023-12-26T21:33:37.265Z,75.36
2023-12-26T21:36:04.929Z,75.08
2023-12-26T21:38:33.060Z,75.34
2023-12-26T21:40:59.819Z,75.42
2023-12-26T21:43:26.594Z,75.07
2023-12-26T21:45:58.536Z,75.57
2023-12-26T21:48:25.716Z,75.94
2023-12-26T21:50:52.773Z,75.35
2023-12-26T21:53:19.443Z,75.34
2023-12-26T21:55:46.541Z,76.01
2023-12-26T21:58:13.258Z,75.84
2023-12-26T22:00:40.072Z,75.86
2023-12-26T22:03:07.296Z,75.76
2023-12-26T22:05:34.050Z,76.04
2023-12-26T22:08:00.769Z,76.11
2023-12-26T22:10:27.759Z,75.94
2023-12-26T22:12:54.517Z,76.10
2023-12-26T22:15:24.034Z,76.15
2023-12-26T22:17:51.616Z,76.54
2023-12-26T22:20:18.991Z,76.23
2023-12-26T22:22:45.645Z,76.03
2023-12-26T22:25:12.302Z,76.63
2023-12-26T22:27:39.066Z,76.68
2023-12-26T22:30:06.517Z,76.60
2023-12-26T22:32:33.365Z,76.34
2023-12-26T22:35:00.332Z,76.54
2023-12-26T22:37:27.490Z,76.28
2023-12-26T22:39:54.478Z,76.07
2023-12-26T22:42:21.164Z,76.11
2023-12-26T22:44:47.983Z,75.98
2023-12-26T22:47:14.677Z,75.49
2023-12-26T22:49:41.975Z,75.38
2023-12-26T22:52:11.025Z,75.34
2023-12-26T22:54:40.447Z,75.84
2023-12-26T22:57:08.397Z,75.83
2023-12-26T22:59:35.086Z,75.96
2023-12-26T23:02:03.116Z,76.51
2023-12-26T23:04:30.021Z,77.00
2023-12-26T23:06:56.852Z,77.11
2023-12-26T23:09:23.758Z,76.95
2023-12-26T23:11:50.740Z,76.81
2023-12-26T23:14:17.378Z,75.98
2023-12-26T23:16:45.379Z,75.74
2023-12-26T23:19:12.826Z,76.31
2023-12-26T23:21:39.831Z,75.91
2023-12-26T23:24:07.609Z,76.89
2023-12-26T23:26:34.603Z,76.92
2023-12-26T23:29:03.846Z,77.09
2023-12-26T23:31:32.325Z,77.09
2023-12-26T23:33:59.625Z,77.29
2023-12-26T23:36:26.404Z,77.48
2023-12-26T23:38:53.136Z,77.47
2023-12-26T23:41:19.831Z,77.33
2023-12-26T23:43:46.451Z,78.08
2023-12-26T23:46:13.185Z,77.63
2023-12-26T23:48:40.378Z,77.67
2023-12-26T23:51:07.127Z,77.79
2023-12-26T23:53:33.770Z,77.57
2023-12-26T23:56:00.493Z,77.77
2023-12-26T23:58:27.160Z,77.63
